sensor_id;sensor_type;location;lat;lon;timestamp;temperature;humidity
23669;DHT22;12011;47.422;15.018;2023-06-04T00:01:54;13.90;99.20
23669;DHT22;12011;47.422;15.018;2023-06-04T00:04:25;13.90;99.90
23669;DHT22;12011;47.422;15.018;2023-06-04T00:06:56;13.90;99.90
23669;DHT22;12011;47.422;15.018;2023-06-04T00:09:26;13.90;99.30
23669;DHT22;12011;47.422;15.018;2023-06-04T00:11:55;13.90;99.90
23669;DHT22;12011;47.422;15.018;2023-06-04T00:14:28;13.80;99.90
23669;DHT22;12011;47.422;15.018;2023-06-04T00:16:57;13.90;99.30
23669;DHT22;12011;47.422;15.018;2023-06-04T00:19:27;13.90;97.10
23669;DHT22;12011;47.422;15.018;2023-06-04T00:21:56;13.90;99.90
23669;DHT22;12011;47.422;15.018;2023-06-04T00:24:26;13.90;98.60
23669;DHT22;12011;47.422;15.018;2023-06-04T00:26:55;13.90;97.90
23669;DHT22;12011;47.422;15.018;2023-06-04T00:29:28;13.90;98.90
23669;DHT22;12011;47.422;15.018;2023-06-04T00:31:57;13.90;99.90
23669;DHT22;12011;47.422;15.018;2023-06-04T00:34:27;13.90;99.90
23669;DHT22;12011;47.422;15.018;2023-06-04T00:36:56;13.80;99.90
23669;DHT22;12011;47.422;15.018;2023-06-04T00:39:27;13.80;99.90
23669;DHT22;12011;47.422;15.018;2023-06-04T00:41:57;13.70;99.90
23669;DHT22;12011;47.422;15.018;2023-06-04T00:44:30;13.80;99.90
23669;DHT22;12011;47.422;15.018;2023-06-04T00:47:00;13.70;99.90
23669;DHT22;12011;47.422;15.018;2023-06-04T00:49:29;13.70;99.90
23669;DHT22;12011;47.422;15.018;2023-06-04T00:51:59;13.80;99.90
23669;DHT22;12011;47.422;15.018;2023-06-04T00:54:30;13.70;99.90
23669;DHT22;12011;47.422;15.018;2023-06-04T00:57:01;13.70;99.90
23669;DHT22;12011;47.422;15.018;2023-06-04T00:59:35;13.70;99.90
23669;DHT22;12011;47.422;15.018;2023-06-04T01:02:11;13.80;99.90
23669;DHT22;12011;47.422;15.018;2023-06-04T01:04:46;13.80;99.70
23669;DHT22;12011;47.422;15.018;2023-06-04T01:07:22;13.80;99.80
23669;DHT22;12011;47.422;15.018;2023-06-04T01:09:53;13.80;99.20
23669;DHT22;12011;47.422;15.018;2023-06-04T01:12:23;13.80;99.90
23669;DHT22;12011;47.422;15.018;2023-06-04T01:14:55;13.70;99.90
23669;DHT22;12011;47.422;15.018;2023-06-04T01:17:29;13.70;99.90
23669;DHT22;12011;47.422;15.018;2023-06-04T01:20:23;13.70;99.90
23669;DHT22;12011;47.422;15.018;2023-06-04T01:23:25;13.70;99.90
23669;DHT22;12011;47.422;15.018;2023-06-04T01:26:00;13.60;99.90
23669;DHT22;12011;47.422;15.018;2023-06-04T01:28:33;13.60;99.90
23669;DHT22;12011;47.422;15.018;2023-06-04T01:31:06;13.50;99.90
23669;DHT22;12011;47.422;15.018;2023-06-04T01:33:36;13.50;99.90
23669;DHT22;12011;47.422;15.018;2023-06-04T01:36:07;13.50;99.90
23669;DHT22;12011;47.422;15.018;2023-06-04T01:38:38;13.50;99.90
23669;DHT22;12011;47.422;15.018;2023-06-04T01:41:08;13.50;99.90
23669;DHT22;12011;47.422;15.018;2023-06-04T01:43:37;13.50;99.90
23669;DHT22;12011;47.422;15.018;2023-06-04T01:46:09;13.40;99.90
23669;DHT22;12011;47.422;15.018;2023-06-04T01:48:39;13.50;99.90
23669;DHT22;12011;47.422;15.018;2023-06-04T01:51:09;13.40;99.90
23669;DHT22;12011;47.422;15.018;2023-06-04T01:53:38;13.40;99.90
23669;DHT22;12011;47.422;15.018;2023-06-04T01:56:08;13.50;99.90
23669;DHT22;12011;47.422;15.018;2023-06-04T01:58:39;13.50;99.90
23669;DHT22;12011;47.422;15.018;2023-06-04T02:01:11;13.50;99.90
23669;DHT22;12011;47.422;15.018;2023-06-04T02:03:43;13.60;99.90
23669;DHT22;12011;47.422;15.018;2023-06-04T02:06:13;13.60;99.90
23669;DHT22;12011;47.422;15.018;2023-06-04T02:08:42;13.60;99.90
23669;DHT22;12011;47.422;15.018;2023-06-04T02:11:12;13.60;99.90
23669;DHT22;12011;47.422;15.018;2023-06-04T02:13:42;13.60;99.90
23669;DHT22;12011;47.422;15.018;2023-06-04T02:16:14;13.50;99.90
23669;DHT22;12011;47.422;15.018;2023-06-04T02:18:43;13.50;99.90
23669;DHT22;12011;47.422;15.018;2023-06-04T02:21:13;13.50;99.90
23669;DHT22;12011;47.422;15.018;2023-06-04T02:23:42;13.50;99.90
23669;DHT22;12011;47.422;15.018;2023-06-04T02:26:12;13.50;99.90
23669;DHT22;12011;47.422;15.018;2023-06-04T02:28:42;13.60;99.90
23669;DHT22;12011;47.422;15.018;2023-06-04T02:31:14;13.60;99.90
23669;DHT22;12011;47.422;15.018;2023-06-04T02:33:43;13.60;99.90
23669;DHT22;12011;47.422;15.018;2023-06-04T02:36:13;13.50;99.90
23669;DHT22;12011;47.422;15.018;2023-06-04T02:38:43;13.50;99.90
23669;DHT22;12011;47.422;15.018;2023-06-04T02:41:13;13.40;99.90
23669;DHT22;12011;47.422;15.018;2023-06-04T02:43:42;13.40;99.90
23669;DHT22;12011;47.422;15.018;2023-06-04T02:46:15;13.40;99.90
23669;DHT22;12011;47.422;15.018;2023-06-04T02:48:44;13.40;99.90
23669;DHT22;12011;47.422;15.018;2023-06-04T02:51:14;13.40;99.90
23669;DHT22;12011;47.422;15.018;2023-06-04T02:53:44;13.40;99.90
23669;DHT22;12011;47.422;15.018;2023-06-04T02:56:14;13.40;99.90
23669;DHT22;12011;47.422;15.018;2023-06-04T02:58:51;13.40;99.90
23669;DHT22;12011;47.422;15.018;2023-06-04T03:01:25;13.50;99.90
23669;DHT22;12011;47.422;15.018;2023-06-04T03:03:56;13.40;99.90
23669;DHT22;12011;47.422;15.018;2023-06-04T03:06:27;13.40;99.90
23669;DHT22;12011;47.422;15.018;2023-06-04T03:08:57;13.40;99.90
23669;DHT22;12011;47.422;15.018;2023-06-04T03:11:27;13.50;99.90
23669;DHT22;12011;47.422;15.018;2023-06-04T03:13:57;13.50;99.90
23669;DHT22;12011;47.422;15.018;2023-06-04T03:16:29;13.40;99.90
23669;DHT22;12011;47.422;15.018;2023-06-04T03:18:59;13.40;99.90
23669;DHT22;12011;47.422;15.018;2023-06-04T03:21:29;13.40;99.90
23669;DHT22;12011;47.422;15.018;2023-06-04T03:23:59;13.40;99.90
23669;DHT22;12011;47.422;15.018;2023-06-04T03:26:28;13.40;99.90
23669;DHT22;12011;47.422;15.018;2023-06-04T03:28:58;13.40;99.90
23669;DHT22;12011;47.422;15.018;2023-06-04T03:31:30;13.40;99.90
23669;DHT22;12011;47.422;15.018;2023-06-04T03:33:59;13.50;99.90
23669;DHT22;12011;47.422;15.018;2023-06-04T03:36:30;13.50;99.90
23669;DHT22;12011;47.422;15.018;2023-06-04T03:39:05;13.50;99.90
23669;DHT22;12011;47.422;15.018;2023-06-04T03:41:36;13.50;99.90
23669;DHT22;12011;47.422;15.018;2023-06-04T03:44:07;13.50;99.90
23669;DHT22;12011;47.422;15.018;2023-06-04T03:46:39;13.60;99.90
23669;DHT22;12011;47.422;15.018;2023-06-04T03:49:09;13.60;99.90
23669;DHT22;12011;47.422;15.018;2023-06-04T03:51:39;13.60;99.90
23669;DHT22;12011;47.422;15.018;2023-06-04T03:54:10;13.50;99.90
23669;DHT22;12011;47.422;15.018;2023-06-04T03:56:44;13.60;99.90
23669;DHT22;12011;47.422;15.018;2023-06-04T03:59:13;13.60;99.90
23669;DHT22;12011;47.422;15.018;2023-06-04T04:01:45;13.60;99.90
23669;DHT22;12011;47.422;15.018;2023-06-04T04:04:15;13.60;99.90
23669;DHT22;12011;47.422;15.018;2023-06-04T04:06:45;13.70;99.90
23669;DHT22;12011;47.422;15.018;2023-06-04T04:09:14;13.70;99.90
23669;DHT22;12011;47.422;15.018;2023-06-04T04:11:46;13.70;99.90
23669;DHT22;12011;47.422;15.018;2023-06-04T04:14:16;13.70;99.90
23669;DHT22;12011;47.422;15.018;2023-06-04T04:16:48;13.70;99.90
23669;DHT22;12011;47.422;15.018;2023-06-04T04:19:17;13.80;99.90
23669;DHT22;12011;47.422;15.018;2023-06-04T04:21:47;13.80;99.90
23669;DHT22;12011;47.422;15.018;2023-06-04T04:24:23;13.90;99.90
23669;DHT22;12011;47.422;15.018;2023-06-04T04:26:56;13.90;99.90
23669;DHT22;12011;47.422;15.018;2023-06-04T04:29:26;13.90;99.90
23669;DHT22;12011;47.422;15.018;2023-06-04T04:32:02;14.00;99.90
23669;DHT22;12011;47.422;15.018;2023-06-04T04:34:37;14.10;99.90
23669;DHT22;12011;47.422;15.018;2023-06-04T04:37:09;14.20;99.90
23669;DHT22;12011;47.422;15.018;2023-06-04T04:39:38;14.30;99.90
23669;DHT22;12011;47.422;15.018;2023-06-04T04:42:08;14.40;99.90
23669;DHT22;12011;47.422;15.018;2023-06-04T04:44:38;14.40;99.90
23669;DHT22;12011;47.422;15.018;2023-06-04T04:47:10;14.40;99.90
23669;DHT22;12011;47.422;15.018;2023-06-04T04:49:39;14.50;99.90
23669;DHT22;12011;47.422;15.018;2023-06-04T04:52:09;14.50;99.90
23669;DHT22;12011;47.422;15.018;2023-06-04T04:54:41;14.50;99.90
23669;DHT22;12011;47.422;15.018;2023-06-04T04:57:11;14.50;99.90
23669;DHT22;12011;47.422;15.018;2023-06-04T04:59:44;14.60;99.90
23669;DHT22;12011;47.422;15.018;2023-06-04T05:02:17;14.60;99.90
23669;DHT22;12011;47.422;15.018;2023-06-04T05:04:47;14.60;99.90
23669;DHT22;12011;47.422;15.018;2023-06-04T05:07:17;14.70;99.90
23669;DHT22;12011;47.422;15.018;2023-06-04T05:09:50;14.70;99.90
23669;DHT22;12011;47.422;15.018;2023-06-04T05:12:19;14.70;99.90
23669;DHT22;12011;47.422;15.018;2023-06-04T05:14:49;14.70;99.90
23669;DHT22;12011;47.422;15.018;2023-06-04T05:17:21;14.80;99.90
23669;DHT22;12011;47.422;15.018;2023-06-04T05:19:56;14.80;99.90
23669;DHT22;12011;47.422;15.018;2023-06-04T05:22:40;14.90;99.90
23669;DHT22;12011;47.422;15.018;2023-06-04T05:25:09;14.90;98.00
23669;DHT22;12011;47.422;15.018;2023-06-04T05:27:40;14.90;96.60
23669;DHT22;12011;47.422;15.018;2023-06-04T05:30:12;14.90;97.30
23669;DHT22;12011;47.422;15.018;2023-06-04T05:32:45;15.00;97.00
23669;DHT22;12011;47.422;15.018;2023-06-04T05:35:18;15.00;96.60
23669;DHT22;12011;47.422;15.018;2023-06-04T05:37:49;15.10;96.50
23669;DHT22;12011;47.422;15.018;2023-06-04T05:40:22;15.10;96.60
23669;DHT22;12011;47.422;15.018;2023-06-04T05:42:52;15.10;96.40
23669;DHT22;12011;47.422;15.018;2023-06-04T05:45:21;15.30;98.60
23669;DHT22;12011;47.422;15.018;2023-06-04T05:47:56;15.40;97.40
23669;DHT22;12011;47.422;15.018;2023-06-04T05:50:28;15.50;96.40
23669;DHT22;12011;47.422;15.018;2023-06-04T05:52:58;15.50;97.40
23669;DHT22;12011;47.422;15.018;2023-06-04T05:55:27;15.60;95.30
23669;DHT22;12011;47.422;15.018;2023-06-04T05:57:58;15.70;93.50
23669;DHT22;12011;47.422;15.018;2023-06-04T06:00:28;15.90;95.30
23669;DHT22;12011;47.422;15.018;2023-06-04T06:03:01;16.00;90.50
23669;DHT22;12011;47.422;15.018;2023-06-04T06:05:39;16.30;93.70
23669;DHT22;12011;47.422;15.018;2023-06-04T06:08:09;16.50;92.60
23669;DHT22;12011;47.422;15.018;2023-06-04T06:10:39;16.70;90.30
23669;DHT22;12011;47.422;15.018;2023-06-04T06:13:08;16.80;87.30
23669;DHT22;12011;47.422;15.018;2023-06-04T06:15:38;16.90;90.40
23669;DHT22;12011;47.422;15.018;2023-06-04T06:18:10;17.00;89.20
23669;DHT22;12011;47.422;15.018;2023-06-04T06:20:40;16.90;92.20
23669;DHT22;12011;47.422;15.018;2023-06-04T06:23:10;17.00;90.10
23669;DHT22;12011;47.422;15.018;2023-06-04T06:25:43;17.00;90.50
23669;DHT22;12011;47.422;15.018;2023-06-04T06:28:23;17.00;87.70
23669;DHT22;12011;47.422;15.018;2023-06-04T06:30:53;17.20;87.40
23669;DHT22;12011;47.422;15.018;2023-06-04T06:33:26;17.30;90.10
23669;DHT22;12011;47.422;15.018;2023-06-04T06:35:55;17.40;90.00
23669;DHT22;12011;47.422;15.018;2023-06-04T06:38:26;17.50;85.30
23669;DHT22;12011;47.422;15.018;2023-06-04T06:40:57;17.60;77.40
23669;DHT22;12011;47.422;15.018;2023-06-04T06:43:27;17.50;79.80
23669;DHT22;12011;47.422;15.018;2023-06-04T06:45:59;17.60;88.70
23669;DHT22;12011;47.422;15.018;2023-06-04T06:48:31;17.70;92.40
23669;DHT22;12011;47.422;15.018;2023-06-04T06:51:02;17.70;90.00
23669;DHT22;12011;47.422;15.018;2023-06-04T06:53:31;17.60;85.60
23669;DHT22;12011;47.422;15.018;2023-06-04T06:56:01;17.60;83.70
23669;DHT22;12011;47.422;15.018;2023-06-04T06:58:31;17.40;85.40
23669;DHT22;12011;47.422;15.018;2023-06-04T07:01:01;17.50;81.40
23669;DHT22;12011;47.422;15.018;2023-06-04T07:03:35;17.60;84.00
23669;DHT22;12011;47.422;15.018;2023-06-04T07:06:06;17.60;80.40
23669;DHT22;12011;47.422;15.018;2023-06-04T07:08:35;17.50;80.20
23669;DHT22;12011;47.422;15.018;2023-06-04T07:11:05;17.50;87.20
23669;DHT22;12011;47.422;15.018;2023-06-04T07:13:38;17.40;84.20
23669;DHT22;12011;47.422;15.018;2023-06-04T07:16:08;17.20;84.60
23669;DHT22;12011;47.422;15.018;2023-06-04T07:18:40;17.20;86.50
23669;DHT22;12011;47.422;15.018;2023-06-04T07:21:09;17.30;91.10
23669;DHT22;12011;47.422;15.018;2023-06-04T07:23:39;17.20;91.10
23669;DHT22;12011;47.422;15.018;2023-06-04T07:26:11;17.30;88.90
23669;DHT22;12011;47.422;15.018;2023-06-04T07:28:49;17.40;89.10
23669;DHT22;12011;47.422;15.018;2023-06-04T07:31:25;17.30;89.80
23669;DHT22;12011;47.422;15.018;2023-06-04T07:33:58;17.40;90.10
23669;DHT22;12011;47.422;15.018;2023-06-04T07:36:28;17.00;89.90
23669;DHT22;12011;47.422;15.018;2023-06-04T07:38:59;16.80;91.10
23669;DHT22;12011;47.422;15.018;2023-06-04T07:41:37;16.80;94.80
23669;DHT22;12011;47.422;15.018;2023-06-04T07:44:07;16.90;93.60
23669;DHT22;12011;47.422;15.018;2023-06-04T07:46:36;17.10;93.50
23669;DHT22;12011;47.422;15.018;2023-06-04T07:49:08;17.30;91.30
23669;DHT22;12011;47.422;15.018;2023-06-04T07:51:38;17.50;94.50
23669;DHT22;12011;47.422;15.018;2023-06-04T07:54:08;17.60;91.10
23669;DHT22;12011;47.422;15.018;2023-06-04T07:56:38;17.70;90.50
23669;DHT22;12011;47.422;15.018;2023-06-04T07:59:07;17.80;90.50
23669;DHT22;12011;47.422;15.018;2023-06-04T08:01:37;17.90;91.10
23669;DHT22;12011;47.422;15.018;2023-06-04T08:04:09;18.20;87.80
23669;DHT22;12011;47.422;15.018;2023-06-04T08:06:39;18.30;86.70
23669;DHT22;12011;47.422;15.018;2023-06-04T08:09:10;18.50;85.50
23669;DHT22;12011;47.422;15.018;2023-06-04T08:11:41;18.60;84.00
23669;DHT22;12011;47.422;15.018;2023-06-04T08:14:12;18.60;85.40
23669;DHT22;12011;47.422;15.018;2023-06-04T08:16:42;18.80;79.30
23669;DHT22;12011;47.422;15.018;2023-06-04T08:19:33;19.00;83.70
23669;DHT22;12011;47.422;15.018;2023-06-04T08:22:13;19.20;82.60
23669;DHT22;12011;47.422;15.018;2023-06-04T08:24:58;19.50;80.60
23669;DHT22;12011;47.422;15.018;2023-06-04T08:27:47;19.90;71.70
23669;DHT22;12011;47.422;15.018;2023-06-04T08:30:37;20.00;78.20
23669;DHT22;12011;47.422;15.018;2023-06-04T08:33:23;20.40;63.20
23669;DHT22;12011;47.422;15.018;2023-06-04T09:21:53;27.90;57.00
23669;DHT22;12011;47.422;15.018;2023-06-04T09:24:26;26.60;54.50
23669;DHT22;12011;47.422;15.018;2023-06-04T09:27:14;26.10;47.50
23669;DHT22;12011;47.422;15.018;2023-06-04T09:29:51;27.80;51.60
23669;DHT22;12011;47.422;15.018;2023-06-04T09:32:23;29.30;51.20
23669;DHT22;12011;47.422;15.018;2023-06-04T09:34:54;29.60;43.40
23669;DHT22;12011;47.422;15.018;2023-06-04T09:37:27;28.50;45.10
23669;DHT22;12011;47.422;15.018;2023-06-04T09:39:58;26.80;47.50
23669;DHT22;12011;47.422;15.018;2023-06-04T09:42:29;25.70;49.00
23669;DHT22;12011;47.422;15.018;2023-06-04T09:44:58;25.40;51.40
23669;DHT22;12011;47.422;15.018;2023-06-04T09:47:39;25.20;54.60
23669;DHT22;12011;47.422;15.018;2023-06-04T09:50:13;26.40;58.90
23669;DHT22;12011;47.422;15.018;2023-06-04T09:52:45;27.00;52.80
23669;DHT22;12011;47.422;15.018;2023-06-04T09:55:16;27.00;48.90
23669;DHT22;12011;47.422;15.018;2023-06-04T09:57:49;27.10;49.70
23669;DHT22;12011;47.422;15.018;2023-06-04T10:00:23;26.10;52.20
23669;DHT22;12011;47.422;15.018;2023-06-04T10:02:58;25.80;50.10
23669;DHT22;12011;47.422;15.018;2023-06-04T10:05:32;25.50;51.40
23669;DHT22;12011;47.422;15.018;2023-06-04T10:08:18;25.50;51.50
23669;DHT22;12011;47.422;15.018;2023-06-04T10:10:50;25.10;55.10
23669;DHT22;12011;47.422;15.018;2023-06-04T10:13:24;24.90;52.90
23669;DHT22;12011;47.422;15.018;2023-06-04T10:15:57;24.90;54.40
23669;DHT22;12011;47.422;15.018;2023-06-04T10:18:30;25.60;52.90
23669;DHT22;12011;47.422;15.018;2023-06-04T10:21:02;26.50;53.70
23669;DHT22;12011;47.422;15.018;2023-06-04T10:23:39;27.90;58.30
23669;DHT22;12011;47.422;15.018;2023-06-04T10:26:14;27.60;52.10
23669;DHT22;12011;47.422;15.018;2023-06-04T10:28:44;28.70;47.40
23669;DHT22;12011;47.422;15.018;2023-06-04T10:31:16;29.50;48.80
23669;DHT22;12011;47.422;15.018;2023-06-04T10:33:48;30.70;57.40
23669;DHT22;12011;47.422;15.018;2023-06-04T10:36:24;31.30;54.00
23669;DHT22;12011;47.422;15.018;2023-06-04T10:39:01;31.90;55.90
23669;DHT22;12011;47.422;15.018;2023-06-04T10:42:00;30.90;53.40
23669;DHT22;12011;47.422;15.018;2023-06-04T10:44:30;29.50;54.70
23669;DHT22;12011;47.422;15.018;2023-06-04T10:47:00;27.80;52.40
23669;DHT22;12011;47.422;15.018;2023-06-04T10:49:30;27.00;54.70
23669;DHT22;12011;47.422;15.018;2023-06-04T10:52:10;26.20;57.40
23669;DHT22;12011;47.422;15.018;2023-06-04T10:54:46;25.60;58.50
23669;DHT22;12011;47.422;15.018;2023-06-04T10:57:19;25.30;60.40
23669;DHT22;12011;47.422;15.018;2023-06-04T10:59:56;25.10;62.50
23669;DHT22;12011;47.422;15.018;2023-06-04T11:02:34;24.10;61.80
23669;DHT22;12011;47.422;15.018;2023-06-04T11:05:06;24.20;62.40
23669;DHT22;12011;47.422;15.018;2023-06-04T11:07:43;24.30;59.70
23669;DHT22;12011;47.422;15.018;2023-06-04T11:10:17;24.10;63.90
23669;DHT22;12011;47.422;15.018;2023-06-04T11:12:49;24.20;70.70
23669;DHT22;12011;47.422;15.018;2023-06-04T11:15:19;24.20;65.80
23669;DHT22;12011;47.422;15.018;2023-06-04T11:17:50;23.80;65.60
23669;DHT22;12011;47.422;15.018;2023-06-04T11:20:22;23.80;67.70
23669;DHT22;12011;47.422;15.018;2023-06-04T11:22:53;23.70;64.30
23669;DHT22;12011;47.422;15.018;2023-06-04T11:25:27;23.60;66.60
23669;DHT22;12011;47.422;15.018;2023-06-04T11:27:57;24.00;65.10
23669;DHT22;12011;47.422;15.018;2023-06-04T11:30:28;24.00;65.30
23669;DHT22;12011;47.422;15.018;2023-06-04T11:33:02;23.70;69.10
23669;DHT22;12011;47.422;15.018;2023-06-04T11:35:40;24.00;62.50
23669;DHT22;12011;47.422;15.018;2023-06-04T11:38:11;23.80;64.40
23669;DHT22;12011;47.422;15.018;2023-06-04T11:40:43;23.50;63.60
23669;DHT22;12011;47.422;15.018;2023-06-04T11:43:13;23.40;63.80
23669;DHT22;12011;47.422;15.018;2023-06-04T11:45:44;23.30;67.80
23669;DHT22;12011;47.422;15.018;2023-06-04T11:48:13;23.40;64.80
23669;DHT22;12011;47.422;15.018;2023-06-04T11:50:44;23.50;64.30
23669;DHT22;12011;47.422;15.018;2023-06-04T11:53:13;23.50;64.00
23669;DHT22;12011;47.422;15.018;2023-06-04T11:55:47;23.70;64.60
23669;DHT22;12011;47.422;15.018;2023-06-04T11:58:17;23.50;63.50
23669;DHT22;12011;47.422;15.018;2023-06-04T12:00:47;23.20;65.80
23669;DHT22;12011;47.422;15.018;2023-06-04T12:03:16;23.50;64.60
23669;DHT22;12011;47.422;15.018;2023-06-04T12:05:47;23.40;65.80
23669;DHT22;12011;47.422;15.018;2023-06-04T12:08:16;23.30;67.50
23669;DHT22;12011;47.422;15.018;2023-06-04T12:10:49;23.10;68.10
23669;DHT22;12011;47.422;15.018;2023-06-04T12:13:19;22.60;75.10
23669;DHT22;12011;47.422;15.018;2023-06-04T12:15:52;22.50;77.30
23669;DHT22;12011;47.422;15.018;2023-06-04T12:18:24;21.80;77.40
23669;DHT22;12011;47.422;15.018;2023-06-04T12:20:54;22.50;76.60
23669;DHT22;12011;47.422;15.018;2023-06-04T12:23:23;23.30;73.70
23669;DHT22;12011;47.422;15.018;2023-06-04T12:25:56;22.70;74.00
23669;DHT22;12011;47.422;15.018;2023-06-04T12:28:28;23.00;74.70
23669;DHT22;12011;47.422;15.018;2023-06-04T12:30:58;22.50;73.60
23669;DHT22;12011;47.422;15.018;2023-06-04T12:33:27;22.10;73.90
23669;DHT22;12011;47.422;15.018;2023-06-04T12:35:57;21.60;82.60
23669;DHT22;12011;47.422;15.018;2023-06-04T12:38:26;21.70;82.90
23669;DHT22;12011;47.422;15.018;2023-06-04T12:40:58;21.50;78.90
23669;DHT22;12011;47.422;15.018;2023-06-04T12:43:28;21.60;80.60
23669;DHT22;12011;47.422;15.018;2023-06-04T12:46:00;21.50;82.20
23669;DHT22;12011;47.422;15.018;2023-06-04T12:48:30;21.60;81.30
23669;DHT22;12011;47.422;15.018;2023-06-04T12:50:59;21.40;77.60
23669;DHT22;12011;47.422;15.018;2023-06-04T12:53:29;21.10;83.80
23669;DHT22;12011;47.422;15.018;2023-06-04T12:56:01;21.00;89.40
23669;DHT22;12011;47.422;15.018;2023-06-04T12:58:30;21.00;81.70
23669;DHT22;12011;47.422;15.018;2023-06-04T13:01:00;21.00;87.50
23669;DHT22;12011;47.422;15.018;2023-06-04T13:03:30;21.00;83.70
23669;DHT22;12011;47.422;15.018;2023-06-04T13:06:00;21.30;82.90
23669;DHT22;12011;47.422;15.018;2023-06-04T13:08:30;21.20;81.10
23669;DHT22;12011;47.422;15.018;2023-06-04T13:11:02;21.00;76.70
23669;DHT22;12011;47.422;15.018;2023-06-04T13:13:31;21.00;77.20
23669;DHT22;12011;47.422;15.018;2023-06-04T13:16:02;20.80;81.60
23669;DHT22;12011;47.422;15.018;2023-06-04T13:18:31;21.00;84.20
23669;DHT22;12011;47.422;15.018;2023-06-04T13:21:01;21.30;85.00
23669;DHT22;12011;47.422;15.018;2023-06-04T13:23:31;21.30;81.90
23669;DHT22;12011;47.422;15.018;2023-06-04T13:26:04;21.10;81.90
23669;DHT22;12011;47.422;15.018;2023-06-04T13:28:33;21.00;81.90
23669;DHT22;12011;47.422;15.018;2023-06-04T13:31:03;21.00;83.40
23669;DHT22;12011;47.422;15.018;2023-06-04T13:33:32;20.90;90.00
23669;DHT22;12011;47.422;15.018;2023-06-04T13:36:03;20.90;83.40
23669;DHT22;12011;47.422;15.018;2023-06-04T13:38:34;20.90;84.70
23669;DHT22;12011;47.422;15.018;2023-06-04T13:41:06;20.70;87.80
23669;DHT22;12011;47.422;15.018;2023-06-04T13:43:35;20.60;86.60
23669;DHT22;12011;47.422;15.018;2023-06-04T13:46:05;20.80;86.90
23669;DHT22;12011;47.422;15.018;2023-06-04T13:48:35;20.70;87.80
23669;DHT22;12011;47.422;15.018;2023-06-04T13:51:05;21.00;88.40
23669;DHT22;12011;47.422;15.018;2023-06-04T13:53:34;20.30;91.70
23669;DHT22;12011;47.422;15.018;2023-06-04T13:56:06;20.20;93.90
23669;DHT22;12011;47.422;15.018;2023-06-04T13:58:36;20.30;93.70
23669;DHT22;12011;47.422;15.018;2023-06-04T14:01:05;20.50;94.10
23669;DHT22;12011;47.422;15.018;2023-06-04T14:03:35;19.50;92.60
23669;DHT22;12011;47.422;15.018;2023-06-04T14:06:04;19.50;94.00
23669;DHT22;12011;47.422;15.018;2023-06-04T14:08:34;19.20;95.10
23669;DHT22;12011;47.422;15.018;2023-06-04T14:11:06;18.90;95.90
23669;DHT22;12011;47.422;15.018;2023-06-04T14:13:37;18.50;98.30
23669;DHT22;12011;47.422;15.018;2023-06-04T14:16:07;19.10;99.80
23669;DHT22;12011;47.422;15.018;2023-06-04T14:18:38;19.00;99.90
23669;DHT22;12011;47.422;15.018;2023-06-04T14:21:07;18.90;99.90
23669;DHT22;12011;47.422;15.018;2023-06-04T14:23:37;18.90;99.90
23669;DHT22;12011;47.422;15.018;2023-06-04T14:26:09;18.70;98.20
23669;DHT22;12011;47.422;15.018;2023-06-04T14:28:39;18.30;99.90
23669;DHT22;12011;47.422;15.018;2023-06-04T14:31:09;17.80;99.90
23669;DHT22;12011;47.422;15.018;2023-06-04T14:33:38;17.70;97.50
23669;DHT22;12011;47.422;15.018;2023-06-04T14:36:08;17.70;97.60
23669;DHT22;12011;47.422;15.018;2023-06-04T14:38:37;17.50;95.90
23669;DHT22;12011;47.422;15.018;2023-06-04T14:41:10;17.30;96.90
23669;DHT22;12011;47.422;15.018;2023-06-04T14:43:41;17.20;95.70
23669;DHT22;12011;47.422;15.018;2023-06-04T14:46:10;17.10;95.00
23669;DHT22;12011;47.422;15.018;2023-06-04T14:48:40;16.90;95.50
23669;DHT22;12011;47.422;15.018;2023-06-04T14:51:10;16.80;96.40
23669;DHT22;12011;47.422;15.018;2023-06-04T14:53:39;16.70;96.40
23669;DHT22;12011;47.422;15.018;2023-06-04T14:56:11;16.50;97.20
23669;DHT22;12011;47.422;15.018;2023-06-04T14:58:41;16.50;97.60
23669;DHT22;12011;47.422;15.018;2023-06-04T15:01:10;16.60;97.90
23669;DHT22;12011;47.422;15.018;2023-06-04T15:03:40;16.60;97.10
23669;DHT22;12011;47.422;15.018;2023-06-04T15:06:12;16.70;99.90
23669;DHT22;12011;47.422;15.018;2023-06-04T15:08:41;16.50;99.90
23669;DHT22;12011;47.422;15.018;2023-06-04T15:11:14;16.60;99.80
23669;DHT22;12011;47.422;15.018;2023-06-04T15:13:44;16.50;99.90
23669;DHT22;12011;47.422;15.018;2023-06-04T15:16:13;16.60;99.90
23669;DHT22;12011;47.422;15.018;2023-06-04T15:18:43;16.30;99.90
23669;DHT22;12011;47.422;15.018;2023-06-04T15:21:13;16.00;99.90
23669;DHT22;12011;47.422;15.018;2023-06-04T15:23:43;16.20;99.90
23669;DHT22;12011;47.422;15.018;2023-06-04T15:26:17;16.00;99.90
23669;DHT22;12011;47.422;15.018;2023-06-04T15:28:47;16.30;99.70
23669;DHT22;12011;47.422;15.018;2023-06-04T15:31:16;16.20;99.80
23669;DHT22;12011;47.422;15.018;2023-06-04T15:33:46;16.00;99.90
23669;DHT22;12011;47.422;15.018;2023-06-04T15:36:16;16.40;99.90
23669;DHT22;12011;47.422;15.018;2023-06-04T15:38:48;15.90;99.90
23669;DHT22;12011;47.422;15.018;2023-06-04T15:41:21;15.90;99.90
23669;DHT22;12011;47.422;15.018;2023-06-04T15:43:51;15.60;99.90
23669;DHT22;12011;47.422;15.018;2023-06-04T15:46:23;15.90;99.90
23669;DHT22;12011;47.422;15.018;2023-06-04T15:48:53;15.70;99.90
23669;DHT22;12011;47.422;15.018;2023-06-04T15:51:22;15.70;99.90
23669;DHT22;12011;47.422;15.018;2023-06-04T15:53:52;15.90;99.90
23669;DHT22;12011;47.422;15.018;2023-06-04T15:56:24;15.80;99.90
23669;DHT22;12011;47.422;15.018;2023-06-04T15:58:54;15.80;99.90
23669;DHT22;12011;47.422;15.018;2023-06-04T16:01:24;15.80;99.90
23669;DHT22;12011;47.422;15.018;2023-06-04T16:03:53;15.90;99.90
23669;DHT22;12011;47.422;15.018;2023-06-04T16:06:23;15.70;99.90
23669;DHT22;12011;47.422;15.018;2023-06-04T16:08:53;15.70;99.90
23669;DHT22;12011;47.422;15.018;2023-06-04T16:11:25;15.70;99.90
23669;DHT22;12011;47.422;15.018;2023-06-04T16:13:54;15.60;99.90
23669;DHT22;12011;47.422;15.018;2023-06-04T16:16:24;15.80;99.90
23669;DHT22;12011;47.422;15.018;2023-06-04T16:18:53;15.50;99.90
23669;DHT22;12011;47.422;15.018;2023-06-04T16:21:25;15.60;99.90
23669;DHT22;12011;47.422;15.018;2023-06-04T16:23:55;15.60;99.90
23669;DHT22;12011;47.422;15.018;2023-06-04T16:26:27;15.50;99.90
23669;DHT22;12011;47.422;15.018;2023-06-04T16:28:56;15.40;99.90